Time;durP1;ratioP1;P1;durP2;ratioP2;P2;SDS_P1;SDS_P2;PMS_P1;PMS_P2;Temp;Humidity;BMP_temperature;BMP_pressure;BME280_temperature;BME280_humidity;BME280_pressure;Samples;Min_cycle;Max_cycle;Signal;HPM_P1;HPM_P2
2022/07/13 00:02:00;;;;;;;6.40;3.15;;;25.40;99.90;;;;;;5016065;28;20161;-83
2022/07/13 00:04:25;;;;;;;3.42;2.80;;;25.40;99.90;;;;;;5016170;28;20172;-85
2022/07/13 00:06:51;;;;;;;2.97;2.25;;;25.50;99.90;;;;;;5014617;28;20165;-84
2022/07/13 00:09:17;;;;;;;7.35;2.90;;;25.60;99.90;;;;;;5015225;28;20246;-84
2022/07/13 00:11:42;;;;;;;10.30;2.67;;;25.60;99.90;;;;;;5016008;28;20226;-81
2022/07/13 00:14:08;;;;;;;3.15;2.35;;;25.60;99.90;;;;;;5016152;28;20592;-88
2022/07/13 00:16:33;;;;;;;4.03;2.60;;;25.60;99.90;;;;;;5015967;28;20192;-83
2022/07/13 00:18:59;;;;;;;5.50;2.75;;;25.50;99.90;;;;;;5017334;28;20164;-80
2022/07/13 00:21:25;;;;;;;7.15;2.65;;;25.40;99.90;;;;;;5024837;28;20204;-81
2022/07/13 00:23:50;;;;;;;5.38;2.67;;;25.40;99.90;;;;;;5021424;28;20168;-81
2022/07/13 00:26:16;;;;;;;4.47;2.53;;;25.40;99.90;;;;;;5020362;28;20699;-82
2022/07/13 00:28:42;;;;;;;6.30;2.75;;;25.40;99.90;;;;;;5015747;28;20195;-86
2022/07/13 00:31:07;;;;;;;2.45;2.25;;;25.40;99.90;;;;;;5015504;28;20185;-86
2022/07/13 00:33:33;;;;;;;13.82;2.22;;;25.30;99.90;;;;;;5014304;28;20864;-83
2022/07/13 00:35:59;;;;;;;7.78;2.50;;;25.30;99.90;;;;;;5014308;28;20172;-83
2022/07/13 00:38:24;;;;;;;4.43;2.60;;;25.20;99.90;;;;;;5015376;28;20157;-86
2022/07/13 00:40:50;;;;;;;6.85;2.25;;;25.20;99.90;;;;;;5015538;28;20291;-87
2022/07/13 00:43:15;;;;;;;3.10;2.17;;;25.20;99.90;;;;;;5015574;28;20196;-83
2022/07/13 00:45:41;;;;;;;4.82;2.40;;;25.30;99.90;;;;;;5015224;28;20207;-87
2022/07/13 00:48:07;;;;;;;2.58;2.33;;;25.30;99.90;;;;;;5030580;28;20175;-86
2022/07/13 00:50:33;;;;;;;3.03;2.65;;;25.30;99.90;;;;;;5030401;28;20200;-85
2022/07/13 00:52:58;;;;;;;4.43;2.38;;;25.40;99.90;;;;;;5015123;28;20172;-85
2022/07/13 00:55:25;;;;;;;2.95;1.70;;;25.40;99.90;;;;;;5015041;28;20173;-83
2022/07/13 00:57:51;;;;;;;2.47;1.88;;;25.40;99.90;;;;;;5014210;28;20172;-87
2022/07/13 01:00:18;;;;;;;2.22;2.03;;;25.40;99.90;;;;;;5013761;28;20200;-86
2022/07/13 01:02:46;;;;;;;3.28;2.58;;;25.40;99.90;;;;;;5014019;28;20164;-83
2022/07/13 01:05:13;;;;;;;2.35;2.10;;;25.40;99.90;;;;;;5013590;28;20172;-82
2022/07/13 01:07:39;;;;;;;3.97;2.13;;;25.40;99.90;;;;;;5013778;28;20169;-82
2022/07/13 01:10:07;;;;;;;2.17;1.90;;;25.30;99.90;;;;;;5028540;28;20199;-84
2022/07/13 01:12:34;;;;;;;3.45;2.10;;;25.40;99.90;;;;;;5014123;28;20186;-82
2022/07/13 01:15:00;;;;;;;5.82;1.60;;;25.40;99.90;;;;;;5012444;28;20185;-84
2022/07/13 01:17:27;;;;;;;1.73;1.55;;;25.50;99.90;;;;;;5012599;28;20173;-81
2022/07/13 01:19:53;;;;;;;2.10;1.23;;;25.30;99.90;;;;;;5013632;28;20193;-85
2022/07/13 01:22:24;;;;;;;1.65;1.52;;;25.40;99.90;;;;;;5015023;28;20510;-82
2022/07/13 01:24:51;;;;;;;2.75;1.30;;;25.40;99.90;;;;;;5015115;28;20161;-86
2022/07/13 01:27:17;;;;;;;1.55;1.38;;;25.40;99.90;;;;;;5013716;28;20242;-81
2022/07/13 01:29:43;;;;;;;3.95;1.55;;;25.40;99.90;;;;;;5019088;28;20185;-82
2022/07/13 01:32:09;;;;;;;4.22;1.55;;;25.50;99.90;;;;;;5025952;28;20203;-81
2022/07/13 01:34:34;;;;;;;2.55;1.42;;;25.70;99.90;;;;;;5026005;28;20656;-82
2022/07/13 01:37:01;;;;;;;1.63;1.40;;;25.60;99.90;;;;;;5029584;28;20176;-79
2022/07/13 01:39:27;;;;;;;2.83;1.60;;;25.50;99.90;;;;;;5033699;28;20203;-80
2022/07/13 01:41:53;;;;;;;2.45;2.25;;;25.40;99.90;;;;;;5031247;28;20188;-82
2022/07/13 01:44:19;;;;;;;2.80;1.77;;;25.30;99.90;;;;;;5023262;28;20172;-79
2022/07/13 01:46:45;;;;;;;4.97;1.98;;;25.30;99.90;;;;;;5023827;28;20157;-79
2022/07/13 01:49:11;;;;;;;1.58;1.45;;;25.30;99.90;;;;;;5013790;28;20230;-82
2022/07/13 01:51:37;;;;;;;5.10;1.50;;;25.30;99.90;;;;;;5014106;28;20196;-86
2022/07/13 01:54:03;;;;;;;1.52;1.27;;;25.40;99.90;;;;;;5014166;28;20247;-82
2022/07/13 01:56:28;;;;;;;1.88;1.52;;;25.40;99.90;;;;;;5014002;28;20602;-86
2022/07/13 01:58:54;;;;;;;11.15;1.52;;;25.40;99.90;;;;;;5013618;28;20201;-80
2022/07/13 02:01:20;;;;;;;2.90;1.65;;;25.40;99.90;;;;;;5013769;28;20354;-85
2022/07/13 02:03:45;;;;;;;1.60;1.50;;;25.40;99.90;;;;;;5014145;28;20251;-82
2022/07/13 02:06:11;;;;;;;10.00;2.03;;;25.40;99.90;;;;;;5013892;28;20243;-81
2022/07/13 02:08:37;;;;;;;1.38;1.27;;;25.40;99.90;;;;;;5014065;28;20644;-83
2022/07/13 02:11:03;;;;;;;1.40;1.30;;;25.30;99.90;;;;;;5013672;28;20192;-83
2022/07/13 02:13:28;;;;;;;2.05;1.50;;;25.30;99.90;;;;;;5029077;28;20169;-85
2022/07/13 02:15:54;;;;;;;7.40;1.70;;;25.20;99.90;;;;;;5013581;28;20234;-80
2022/07/13 02:18:20;;;;;;;1.58;1.48;;;25.40;99.90;;;;;;5013814;28;20536;-83
2022/07/13 02:20:46;;;;;;;10.25;1.63;;;25.40;99.90;;;;;;5013261;28;20208;-80
2022/07/13 02:23:12;;;;;;;2.17;1.23;;;25.60;99.90;;;;;;5012853;28;20196;-80
2022/07/13 02:25:38;;;;;;;2.60;1.40;;;25.40;99.90;;;;;;5012718;28;20204;-80
2022/07/13 02:28:07;;;;;;;1.40;1.30;;;25.30;99.90;;;;;;5012775;28;20165;-79
2022/07/13 02:30:34;;;;;;;2.67;1.55;;;25.40;99.90;;;;;;5012282;28;20255;-79
2022/07/13 02:33:00;;;;;;;6.90;1.83;;;25.40;99.90;;;;;;5027916;28;20225;-80
2022/07/13 02:35:26;;;;;;;1.40;1.30;;;25.40;99.90;;;;;;5013029;28;20176;-82
2022/07/13 02:37:52;;;;;;;1.42;1.33;;;25.40;99.90;;;;;;5013306;28;20239;-82
2022/07/13 02:40:17;;;;;;;5.78;1.58;;;25.30;99.90;;;;;;5013081;28;20207;-83
2022/07/13 02:42:44;;;;;;;1.30;1.20;;;25.20;99.90;;;;;;5013155;28;20217;-85
2022/07/13 02:45:10;;;;;;;5.97;1.40;;;25.30;99.90;;;;;;5013062;28;20173;-83
2022/07/13 02:47:36;;;;;;;1.27;1.23;;;25.40;99.80;;;;;;5013411;28;20174;-84
2022/07/13 02:50:02;;;;;;;1.48;1.38;;;25.50;99.90;;;;;;5013096;28;20192;-82
2022/07/13 02:52:28;;;;;;;1.45;1.17;;;25.40;99.90;;;;;;5012014;28;20164;-86
2022/07/13 02:54:53;;;;;;;3.03;1.58;;;25.30;99.90;;;;;;5013131;28;20544;-82
2022/07/13 02:57:19;;;;;;;1.23;1.10;;;25.20;99.90;;;;;;5013463;28;20632;-84
2022/07/13 02:59:44;;;;;;;5.10;1.30;;;25.20;99.90;;;;;;5013578;28;20313;-84
2022/07/13 03:02:10;;;;;;;2.20;1.20;;;25.20;99.90;;;;;;5013332;28;20176;-83
2022/07/13 03:04:36;;;;;;;1.85;1.60;;;25.20;99.90;;;;;;5013293;28;20165;-83
2022/07/13 03:07:02;;;;;;;6.55;1.25;;;25.30;99.30;;;;;;5013151;28;20688;-82
2022/07/13 03:09:28;;;;;;;6.68;1.48;;;25.20;99.00;;;;;;5012946;28;20287;-84
2022/07/13 03:11:53;;;;;;;2.08;1.40;;;25.30;99.10;;;;;;5011891;28;20588;-85
2022/07/13 03:14:19;;;;;;;4.53;1.58;;;25.20;99.30;;;;;;5011847;28;20169;-84
2022/07/13 03:16:45;;;;;;;4.28;1.42;;;25.20;99.20;;;;;;5013133;28;20187;-84
2022/07/13 03:19:11;;;;;;;1.02;0.93;;;25.20;99.10;;;;;;5012038;28;20188;-81
2022/07/13 03:21:36;;;;;;;2.58;1.40;;;25.30;98.90;;;;;;5013011;28;20208;-84
2022/07/13 03:24:02;;;;;;;1.40;1.30;;;25.20;99.10;;;;;;5013050;28;20168;-84
2022/07/13 03:26:28;;;;;;;2.42;1.38;;;25.20;99.20;;;;;;5012993;28;20180;-83
2022/07/13 03:28:54;;;;;;;2.08;1.40;;;25.20;99.80;;;;;;5012932;28;20160;-87
2022/07/13 03:31:20;;;;;;;1.73;1.48;;;25.10;99.90;;;;;;5011926;28;20177;-82
2022/07/13 03:33:46;;;;;;;1.55;1.45;;;25.20;99.90;;;;;;5020514;28;20183;-80
2022/07/13 03:36:12;;;;;;;2.38;1.58;;;25.30;99.80;;;;;;5030917;28;20169;-80
2022/07/13 03:38:38;;;;;;;2.17;1.42;;;25.10;99.90;;;;;;5032900;28;20192;-81
2022/07/13 03:41:04;;;;;;;5.40;1.30;;;25.10;99.90;;;;;;5013090;28;20244;-84
2022/07/13 03:43:30;;;;;;;5.32;1.33;;;25.10;99.90;;;;;;5015463;28;20174;-83
2022/07/13 03:45:56;;;;;;;4.57;1.40;;;25.10;99.90;;;;;;5023031;28;20172;-80
2022/07/13 03:48:22;;;;;;;3.95;1.67;;;24.90;99.90;;;;;;5029713;28;20165;-80
2022/07/13 03:50:48;;;;;;;3.10;1.50;;;25.00;99.90;;;;;;5029411;28;20664;-78
2022/07/13 03:53:14;;;;;;;4.00;1.30;;;25.00;99.90;;;;;;5029616;28;20173;-79
2022/07/13 03:55:41;;;;;;;1.75;1.50;;;24.80;99.90;;;;;;5029046;28;20164;-79
2022/07/13 03:58:08;;;;;;;7.00;1.70;;;24.70;99.90;;;;;;5030507;28;20525;-81
2022/07/13 04:00:35;;;;;;;1.40;1.30;;;24.80;99.90;;;;;;5032239;28;20235;-79
2022/07/13 04:03:00;;;;;;;1.52;1.42;;;24.90;99.90;;;;;;5038691;28;20180;-84
2022/07/13 04:05:51;;;;;;;1.95;1.58;;;24.90;99.90;;;;;;5039659;28;20177;-79
2022/07/13 04:08:17;;;;;;;2.13;1.65;;;24.70;99.90;;;;;;5038011;28;20214;-82
2022/07/13 04:10:43;;;;;;;1.40;1.30;;;24.60;99.90;;;;;;5039848;28;20190;-80
2022/07/13 04:13:08;;;;;;;2.03;1.67;;;24.80;99.90;;;;;;5039661;28;20160;-81
2022/07/13 04:15:34;;;;;;;1.48;1.30;;;24.90;99.90;;;;;;5039927;28;20204;-82
2022/07/13 04:18:00;;;;;;;2.03;1.60;;;24.80;99.90;;;;;;5027651;28;20650;-79
2022/07/13 04:20:25;;;;;;;6.00;1.27;;;24.90;99.90;;;;;;5019358;28;20219;-81
2022/07/13 04:22:51;;;;;;;1.85;1.40;;;24.90;99.90;;;;;;5019521;28;20160;-86
2022/07/13 04:25:16;;;;;;;3.67;1.60;;;24.90;99.90;;;;;;5019647;28;20184;-85
2022/07/13 04:27:42;;;;;;;1.30;1.20;;;24.90;99.90;;;;;;5019527;28;20211;-85
2022/07/13 04:30:09;;;;;;;2.80;1.63;;;24.90;99.90;;;;;;5020604;28;20196;-81
2022/07/13 04:32:35;;;;;;;1.30;1.20;;;24.90;99.90;;;;;;5019727;28;20183;-83
2022/07/13 04:35:00;;;;;;;3.58;1.38;;;24.90;99.90;;;;;;5018713;28;20260;-88
2022/07/13 04:37:26;;;;;;;2.67;1.58;;;24.90;99.90;;;;;;5017202;28;20171;-86
2022/07/13 04:39:52;;;;;;;8.43;1.50;;;24.90;99.90;;;;;;5017916;28;20211;-84
2022/07/13 04:42:18;;;;;;;7.32;1.70;;;25.00;99.90;;;;;;5019588;28;20176;-83
2022/07/13 04:44:43;;;;;;;1.58;1.40;;;25.10;99.90;;;;;;5001111;28;20271;-87
2022/07/13 04:47:09;;;;;;;2.22;2.00;;;24.90;99.90;;;;;;5018070;28;20207;-85
2022/07/13 04:49:35;;;;;;;1.77;1.42;;;24.90;99.90;;;;;;5016595;28;20195;-85
2022/07/13 04:52:00;;;;;;;3.50;1.42;;;24.90;99.90;;;;;;5016991;28;20177;-86
2022/07/13 04:54:26;;;;;;;6.32;1.48;;;24.90;99.90;;;;;;5017531;28;20171;-83
2022/07/13 04:56:52;;;;;;;11.05;1.40;;;25.00;99.90;;;;;;5016513;28;20168;-81
2022/07/13 04:59:17;;;;;;;7.43;2.20;;;25.00;99.90;;;;;;5016944;28;20665;-81
2022/07/13 05:01:43;;;;;;;10.18;1.85;;;25.10;99.90;;;;;;5016168;28;20231;-82
2022/07/13 05:04:09;;;;;;;2.45;1.40;;;25.20;99.80;;;;;;5015121;28;20664;-81
2022/07/13 05:06:34;;;;;;;3.97;1.30;;;25.00;99.90;;;;;;5017109;28;20184;-86
2022/07/13 05:09:00;;;;;;;1.40;1.30;;;24.90;99.90;;;;;;5017910;28;20200;-84
2022/07/13 05:11:26;;;;;;;2.05;1.55;;;25.00;99.90;;;;;;5016898;28;20165;-85
2022/07/13 05:13:52;;;;;;;5.85;1.55;;;25.00;99.90;;;;;;5016655;28;20168;-85
2022/07/13 05:16:18;;;;;;;2.08;1.58;;;25.00;99.90;;;;;;5017502;28;20200;-84
2022/07/13 05:18:44;;;;;;;6.47;1.52;;;25.10;99.90;;;;;;5016754;28;20184;-82
2022/07/13 05:21:10;;;;;;;6.32;1.60;;;25.30;99.60;;;;;;5016011;28;20227;-88
2022/07/13 05:23:36;;;;;;;4.75;1.42;;;25.40;99.70;;;;;;5031486;28;20586;-86
2022/07/13 05:26:04;;;;;;;3.58;1.67;;;25.30;99.90;;;;;;5016215;28;20179;-87
2022/07/13 05:28:30;;;;;;;4.65;1.50;;;25.20;99.90;;;;;;5015026;28;20180;-85
2022/07/13 05:30:56;;;;;;;4.97;1.90;;;25.20;99.90;;;;;;5020240;28;20181;-85
2022/07/13 05:33:22;;;;;;;3.30;1.92;;;25.20;99.90;;;;;;5016102;28;20168;-86
2022/07/13 05:35:47;;;;;;;2.35;1.63;;;25.20;99.90;;;;;;5018977;28;20176;-82
2022/07/13 05:38:13;;;;;;;1.77;1.30;;;25.20;99.90;;;;;;5015450;28;20226;-83
2022/07/13 05:40:39;;;;;;;8.68;1.70;;;25.20;99.90;;;;;;5017150;28;20539;-89
2022/07/13 05:43:05;;;;;;;3.40;1.50;;;25.30;99.90;;;;;;5018486;28;20174;-83
2022/07/13 05:45:34;;;;;;;9.40;1.77;;;25.40;99.90;;;;;;5019710;28;20168;-82
2022/07/13 05:48:00;;;;;;;1.95;1.38;;;25.30;99.90;;;;;;5015128;28;20610;-83
2022/07/13 05:50:27;;;;;;;5.30;1.67;;;25.40;99.90;;;;;;5017286;28;20214;-81
2022/07/13 05:52:54;;;;;;;1.98;1.35;;;25.50;99.90;;;;;;5016374;28;20660;-81
2022/07/13 05:55:20;;;;;;;1.50;1.40;;;25.60;99.90;;;;;;5019574;28;20203;-80
2022/07/13 05:57:46;;;;;;;6.32;1.33;;;25.70;99.90;;;;;;5021081;28;20253;-81
2022/07/13 06:00:13;;;;;;;3.28;1.60;;;25.60;99.90;;;;;;5023905;28;20676;-81
2022/07/13 06:02:42;;;;;;;4.63;1.80;;;25.70;99.90;;;;;;5028438;28;20180;-80
2022/07/13 06:05:13;;;;;;;2.92;1.10;;;25.80;99.90;;;;;;5027800;28;20188;-85
2022/07/13 06:07:42;;;;;;;4.47;1.40;;;25.80;99.90;;;;;;5024528;28;20194;-83
2022/07/13 06:10:08;;;;;;;5.30;1.60;;;25.80;99.90;;;;;;5019945;28;20216;-86
2022/07/13 06:12:33;;;;;;;2.88;1.45;;;25.70;99.90;;;;;;5021748;28;20196;-84
2022/07/13 06:14:59;;;;;;;2.70;1.33;;;25.90;99.90;;;;;;5018033;28;20181;-85
2022/07/13 06:17:28;;;;;;;2.58;1.40;;;26.00;99.90;;;;;;5021026;28;20247;-84
2022/07/13 06:19:53;;;;;;;4.10;1.20;;;26.00;99.90;;;;;;5018968;28;20290;-84
2022/07/13 06:22:19;;;;;;;3.33;1.70;;;26.10;99.90;;;;;;5017645;28;20184;-87
2022/07/13 06:24:45;;;;;;;3.03;1.45;;;26.20;99.90;;;;;;5018041;28;20181;-80
2022/07/13 06:27:12;;;;;;;3.17;1.30;;;26.20;99.90;;;;;;5016731;28;20171;-82
2022/07/13 06:29:37;;;;;;;6.32;1.50;;;26.40;99.90;;;;;;5013634;28;20234;-83
2022/07/13 06:32:03;;;;;;;8.45;1.45;;;26.40;99.40;;;;;;5030020;28;20243;-84
2022/07/13 06:34:29;;;;;;;7.72;1.45;;;26.10;99.90;;;;;;5013266;28;20617;-81
2022/07/13 06:36:54;;;;;;;14.43;1.50;;;26.10;99.90;;;;;;5013922;28;20176;-81
2022/07/13 06:39:20;;;;;;;3.92;1.42;;;26.10;99.90;;;;;;5012504;28;20604;-85
2022/07/13 06:41:46;;;;;;;5.68;1.70;;;26.00;99.90;;;;;;5013959;28;20219;-82
2022/07/13 06:44:12;;;;;;;9.52;1.73;;;26.10;99.90;;;;;;5013568;28;20496;-81
2022/07/13 06:46:38;;;;;;;9.10;1.20;;;26.20;99.90;;;;;;5028260;28;20629;-80
2022/07/13 06:49:04;;;;;;;4.00;1.35;;;26.10;99.90;;;;;;5013408;28;20184;-88
2022/07/13 06:51:30;;;;;;;6.57;1.70;;;26.00;99.90;;;;;;5013155;28;20275;-88
2022/07/13 06:53:55;;;;;;;5.10;1.75;;;26.20;99.90;;;;;;5013168;28;20648;-88
2022/07/13 06:56:21;;;;;;;5.90;1.50;;;26.50;99.90;;;;;;5013143;28;20691;-90
2022/07/13 06:58:47;;;;;;;9.68;1.30;;;26.60;99.90;;;;;;5028887;28;20488;-80
2022/07/13 07:01:13;;;;;;;3.08;1.85;;;26.80;99.90;;;;;;5012482;28;20204;-84
2022/07/13 07:03:38;;;;;;;2.15;1.60;;;27.10;99.90;;;;;;5011452;28;20218;-84
2022/07/13 07:06:05;;;;;;;15.48;1.95;;;27.20;99.90;;;;;;5010982;28;20176;-84
2022/07/13 07:08:30;;;;;;;4.43;1.83;;;27.50;99.90;;;;;;5027452;28;20269;-82
2022/07/13 07:10:56;;;;;;;13.80;2.10;;;27.20;99.90;;;;;;5011370;28;20582;-82
2022/07/13 07:13:22;;;;;;;4.05;1.48;;;27.20;99.90;;;;;;5028012;28;20230;-87
2022/07/13 07:15:48;;;;;;;12.90;1.58;;;27.20;99.90;;;;;;5028719;28;20709;-84
2022/07/13 07:18:14;;;;;;;9.45;1.63;;;27.30;99.90;;;;;;5023146;28;20186;-87
2022/07/13 07:20:39;;;;;;;8.07;1.60;;;27.10;99.90;;;;;;5016574;28;20306;-85
2022/07/13 07:23:05;;;;;;;8.85;2.08;;;27.10;99.90;;;;;;5032469;28;20157;-85
2022/07/13 07:25:31;;;;;;;5.90;1.50;;;27.10;99.90;;;;;;5031705;28;20210;-84
2022/07/13 07:27:56;;;;;;;7.22;1.65;;;27.40;99.90;;;;;;5014502;28;20173;-84
2022/07/13 07:30:22;;;;;;;5.93;2.70;;;27.80;99.90;;;;;;5033106;28;20312;-86
2022/07/13 07:32:48;;;;;;;12.57;1.77;;;28.10;99.90;;;;;;5017645;28;20167;-86
2022/07/13 07:35:13;;;;;;;11.95;2.55;;;28.10;99.90;;;;;;5032312;28;20173;-84
2022/07/13 07:37:39;;;;;;;19.25;2.35;;;28.40;99.90;;;;;;5023886;28;20181;-85
2022/07/13 07:40:07;;;;;;;8.18;2.58;;;28.70;99.90;;;;;;4996474;28;20740;-87
2022/07/13 07:42:33;;;;;;;17.85;3.58;;;28.50;99.90;;;;;;4996656;28;20501;-90
2022/07/13 07:44:58;;;;;;;16.48;4.60;;;28.30;99.90;;;;;;5013804;28;20185;-87
2022/07/13 07:47:25;;;;;;;10.25;4.68;;;28.30;99.90;;;;;;5013955;28;20205;-88
2022/07/13 07:49:52;;;;;;;7.43;3.38;;;28.20;99.90;;;;;;4996097;28;20188;-83
2022/07/13 07:52:18;;;;;;;5.93;2.67;;;27.80;99.90;;;;;;5012236;28;20205;-86
2022/07/13 07:54:43;;;;;;;5.72;4.00;;;27.80;99.90;;;;;;4996755;28;20180;-87
2022/07/13 07:57:09;;;;;;;12.18;2.90;;;27.90;99.90;;;;;;4996448;28;20174;-87
2022/07/13 07:59:34;;;;;;;14.57;2.60;;;28.00;99.90;;;;;;4995954;28;20979;-84
2022/07/13 08:02:00;;;;;;;10.98;2.42;;;28.00;99.90;;;;;;5011517;28;20211;-83
2022/07/13 08:04:26;;;;;;;13.55;1.90;;;28.00;99.90;;;;;;4995034;28;20169;-83
2022/07/13 08:06:51;;;;;;;11.93;2.10;;;27.80;99.90;;;;;;4995436;28;20170;-83
2022/07/13 08:09:17;;;;;;;3.97;2.35;;;27.90;99.90;;;;;;4996119;28;20240;-83
2022/07/13 08:11:43;;;;;;;11.68;1.98;;;27.90;99.90;;;;;;4995169;28;20217;-83
2022/07/13 08:14:08;;;;;;;7.40;2.53;;;27.90;99.90;;;;;;4997074;28;20178;-86
2022/07/13 08:16:34;;;;;;;2.53;1.90;;;27.70;99.90;;;;;;5004838;28;20185;-84
2022/07/13 08:18:59;;;;;;;4.57;1.83;;;27.80;99.90;;;;;;5020220;28;20169;-83
2022/07/13 08:21:26;;;;;;;4.90;1.77;;;27.80;99.90;;;;;;5012969;28;20213;-84
2022/07/13 08:23:51;;;;;;;9.32;2.10;;;28.00;99.90;;;;;;4994707;28;20541;-84
2022/07/13 08:26:27;;;;;;;13.13;1.92;;;27.90;99.90;;;;;;4994684;28;20581;-86
2022/07/13 08:28:54;;;;;;;7.97;2.00;;;27.60;99.90;;;;;;5011755;28;20173;-85
2022/07/13 08:31:22;;;;;;;7.53;2.17;;;27.60;99.90;;;;;;4995184;28;20176;-85
2022/07/13 08:39:22;;;;;;;9.32;2.17;;;28.50;99.90;;;;;;4996962;28;20331;-86
2022/07/13 08:41:48;;;;;;;5.38;1.83;;;28.40;99.90;;;;;;4995616;28;20288;-87
2022/07/13 08:44:14;;;;;;;8.18;2.70;;;28.40;99.90;;;;;;5000828;28;20165;-84
2022/07/13 08:46:41;;;;;;;11.73;2.38;;;28.40;99.90;;;;;;5018761;28;20173;-86
2022/07/13 08:49:07;;;;;;;6.72;2.83;;;28.70;99.90;;;;;;5015417;28;20189;-83
2022/07/13 08:51:33;;;;;;;7.03;2.30;;;28.60;99.90;;;;;;4997025;28;20173;-87
2022/07/13 08:54:00;;;;;;;23.42;3.55;;;28.50;99.90;;;;;;4994879;28;20194;-85
2022/07/13 08:56:25;;;;;;;21.25;2.42;;;28.80;99.90;;;;;;4996110;28;20173;-87
2022/07/13 08:58:52;;;;;;;2.85;2.20;;;28.80;99.90;;;;;;4995918;28;20257;-86
2022/07/13 09:01:19;;;;;;;4.00;2.10;;;28.70;99.90;;;;;;4994269;28;20205;-89
2022/07/13 09:03:45;;;;;;;7.80;2.30;;;28.70;99.90;;;;;;5010717;28;20176;-86
2022/07/13 09:06:39;;;;;;;6.95;1.98;;;28.60;99.90;;;;;;4994570;28;20188;-83
2022/07/13 09:09:36;;;;;;;6.07;1.92;;;28.60;99.90;;;;;;5010969;28;20197;-84
2022/07/13 09:12:11;;;;;;;3.75;2.28;;;28.20;99.90;;;;;;5011110;28;20200;-86
2022/07/13 09:14:37;;;;;;;9.60;1.90;;;28.20;99.90;;;;;;5010647;28;20173;-86
2022/07/13 09:17:02;;;;;;;5.57;2.33;;;28.30;99.90;;;;;;4995163;28;20169;-89
2022/07/13 09:19:39;;;;;;;4.88;2.00;;;28.40;99.90;;;;;;4995130;28;20243;-86
2022/07/13 09:22:12;;;;;;;7.32;2.03;;;28.40;99.90;;;;;;5011614;28;20195;-86
2022/07/13 09:24:43;;;;;;;10.32;2.70;;;28.30;99.90;;;;;;4996244;28;20173;-88
2022/07/13 09:27:08;;;;;;;9.60;2.30;;;28.30;99.90;;;;;;4995457;28;20173;-87
2022/07/13 09:29:36;;;;;;;6.32;2.22;;;28.30;99.90;;;;;;5011566;28;20240;-87
2022/07/13 09:32:07;;;;;;;6.40;2.20;;;28.60;99.90;;;;;;4994645;28;20630;-88
2022/07/13 09:34:54;;;;;;;5.93;2.00;;;28.90;99.90;;;;;;4997389;28;20176;-83
2022/07/13 09:37:27;;;;;;;12.00;2.95;;;29.00;99.70;;;;;;5009395;28;20173;-80
2022/07/13 09:40:06;;;;;;;13.25;2.28;;;28.80;99.40;;;;;;4993704;28;20288;-81
2022/07/13 09:42:37;;;;;;;12.50;2.30;;;28.80;99.90;;;;;;5009118;28;20208;-81
2022/07/13 09:47:57;;;;;;;7.78;1.80;;;28.70;99.90;;;;;;4994865;28;20184;-84
2022/07/13 09:50:37;;;;;;;2.33;1.65;;;28.80;99.90;;;;;;5003276;28;20189;-83
2022/07/13 09:53:22;;;;;;;12.48;2.40;;;29.20;99.60;;;;;;4993023;28;20179;-82
2022/07/13 09:55:48;;;;;;;2.70;1.88;;;28.90;99.90;;;;;;5009355;28;20655;-84
2022/07/13 09:58:28;;;;;;;3.65;2.15;;;29.10;98.90;;;;;;4995053;28;20625;-84
2022/07/13 10:00:56;;;;;;;7.68;1.75;;;29.40;98.10;;;;;;4992755;28;20219;-86
2022/07/13 10:03:23;;;;;;;9.43;1.85;;;29.80;98.80;;;;;;5009429;28;20230;-84
2022/07/13 10:05:51;;;;;;;4.63;1.50;;;30.20;98.10;;;;;;5017407;28;20216;-84
2022/07/13 10:08:18;;;;;;;5.30;1.77;;;30.10;97.90;;;;;;5018728;28;20161;-84
2022/07/13 10:10:45;;;;;;;7.80;2.10;;;30.10;97.70;;;;;;5017144;28;20207;-82
2022/07/13 10:13:12;;;;;;;2.17;1.65;;;29.90;97.40;;;;;;4998719;28;20165;-85
2022/07/13 10:15:39;;;;;;;2.38;2.17;;;29.80;97.60;;;;;;4993990;28;20267;-83
2022/07/13 10:18:07;;;;;;;2.38;1.52;;;29.70;97.80;;;;;;5009630;28;20622;-86
2022/07/13 10:20:34;;;;;;;12.18;1.73;;;29.60;98.90;;;;;;4993336;28;20302;-87
2022/07/13 10:23:00;;;;;;;3.33;1.90;;;29.50;98.80;;;;;;5009879;28;20212;-86
2022/07/13 10:25:44;;;;;;;2.92;1.92;;;29.30;98.50;;;;;;5010332;28;20173;-86
2022/07/13 10:28:12;;;;;;;2.75;1.52;;;29.20;99.20;;;;;;5009825;28;20177;-86
2022/07/13 10:30:38;;;;;;;2.67;1.70;;;29.30;98.50;;;;;;4993319;28;20255;-85
2022/07/13 10:33:18;;;;;;;2.70;1.70;;;29.30;98.50;;;;;;4994421;28;20165;-87
2022/07/13 10:35:52;;;;;;;3.67;1.58;;;29.30;98.30;;;;;;4993929;28;20169;-85
2022/07/13 10:38:20;;;;;;;5.07;1.25;;;29.40;98.40;;;;;;5009233;28;20169;-86
2022/07/13 10:40:47;;;;;;;7.95;1.73;;;29.50;97.60;;;;;;4993746;28;20242;-84
2022/07/13 10:43:14;;;;;;;2.03;1.33;;;29.70;97.70;;;;;;4996130;28;20526;-85
2022/07/13 10:45:43;;;;;;;1.65;1.55;;;29.70;96.70;;;;;;4991791;28;20165;-86
2022/07/13 10:48:31;;;;;;;7.13;1.58;;;29.80;96.90;;;;;;4993596;28;20169;-84
2022/07/13 10:50:59;;;;;;;2.72;1.40;;;30.10;97.20;;;;;;5009195;28;20566;-86
2022/07/13 10:53:45;;;;;;;2.92;1.42;;;30.10;96.60;;;;;;4994919;28;20185;-86
2022/07/13 10:56:21;;;;;;;8.25;1.33;;;30.30;96.40;;;;;;4994183;28;20207;-86
2022/07/13 10:58:50;;;;;;;3.50;1.30;;;30.40;96.60;;;;;;4993123;28;20184;-87
2022/07/13 11:01:48;;;;;;;7.05;1.73;;;30.50;96.40;;;;;;5010257;28;20200;-87
2022/07/13 11:04:16;;;;;;;3.20;1.65;;;30.60;96.50;;;;;;4993800;28;20251;-84
2022/07/13 11:06:42;;;;;;;3.35;1.38;;;30.50;96.00;;;;;;4993127;28;20180;-84
2022/07/13 11:09:19;;;;;;;2.50;1.48;;;30.40;96.20;;;;;;4992005;28;20165;-84
2022/07/13 11:11:47;;;;;;;3.67;1.38;;;30.60;96.30;;;;;;4992718;28;20671;-85
2022/07/13 11:14:35;;;;;;;1.77;1.50;;;30.90;96.40;;;;;;5010323;28;20267;-91
2022/07/13 11:17:28;;;;;;;2.67;1.45;;;31.10;95.70;;;;;;5010127;28;20187;-89
2022/07/13 11:19:55;;;;;;;7.47;1.75;;;30.90;96.20;;;;;;4989204;28;20662;-91
2022/07/13 11:22:26;;;;;;;1.77;1.67;;;30.80;96.30;;;;;;4995080;28;20177;-90
2022/07/13 11:25:13;;;;;;;3.00;1.50;;;31.10;95.90;;;;;;4993562;28;20192;-91
2022/07/13 11:28:25;;;;;;;10.35;2.05;;;31.30;95.80;;;;;;5010126;28;20644;-90
2022/07/13 11:30:54;;;;;;;2.38;1.67;;;31.50;95.80;;;;;;4995387;28;20200;-91
2022/07/13 11:33:22;;;;;;;3.67;1.27;;;32.20;96.10;;;;;;4994533;28;20634;-90
2022/07/13 11:35:48;;;;;;;9.68;2.00;;;32.60;95.50;;;;;;4992587;28;20172;-86
2022/07/13 11:38:16;;;;;;;3.50;1.75;;;32.20;95.50;;;;;;4994424;28;20169;-87
2022/07/13 11:40:43;;;;;;;1.45;1.15;;;32.30;95.20;;;;;;4993871;28;20200;-86
2022/07/13 11:43:10;;;;;;;7.07;1.80;;;32.10;95.00;;;;;;4993724;28;20168;-85
2022/07/13 11:45:39;;;;;;;1.98;1.33;;;32.10;95.00;;;;;;4992543;28;20184;-86
2022/07/13 11:48:06;;;;;;;3.03;1.38;;;32.00;95.20;;;;;;5005006;28;20181;-85
2022/07/13 11:50:47;;;;;;;4.13;1.60;;;32.30;94.80;;;;;;5011095;28;20292;-85
2022/07/13 11:53:24;;;;;;;2.00;1.52;;;32.20;94.90;;;;;;5013375;28;20680;-86
2022/07/13 11:55:50;;;;;;;1.50;1.30;;;31.80;94.30;;;;;;5004563;28;20173;-85
2022/07/13 11:58:23;;;;;;;7.10;1.00;;;31.70;94.60;;;;;;4993605;28;20173;-83
2022/07/13 12:00:49;;;;;;;1.60;1.15;;;31.60;95.10;;;;;;5008398;28;20224;-81
2022/07/13 12:03:14;;;;;;;4.60;1.23;;;31.50;95.60;;;;;;4991288;28;20382;-82
2022/07/13 12:05:44;;;;;;;2.05;1.15;;;31.50;95.90;;;;;;4996522;28;20165;-82
2022/07/13 12:08:11;;;;;;;2.72;1.40;;;31.20;94.50;;;;;;4994751;28;20161;-81
2022/07/13 12:10:37;;;;;;;4.90;1.60;;;31.20;94.60;;;;;;4994598;28;20196;-82
2022/07/13 12:13:03;;;;;;;5.93;1.08;;;31.20;94.70;;;;;;4995879;28;20169;-82
2022/07/13 12:15:29;;;;;;;3.13;1.23;;;31.20;94.80;;;;;;4994494;28;20289;-81
2022/07/13 12:17:54;;;;;;;3.53;1.33;;;31.10;95.60;;;;;;4995536;28;20188;-81
2022/07/13 12:20:22;;;;;;;17.70;1.40;;;31.20;94.40;;;;;;4994204;28;20681;-81
2022/07/13 12:22:53;;;;;;;6.05;1.38;;;31.10;94.30;;;;;;4994629;28;20164;-81
2022/07/13 12:25:39;;;;;;;1.40;1.20;;;31.10;94.30;;;;;;4996024;28;20626;-81
2022/07/13 12:28:08;;;;;;;4.85;1.02;;;31.00;95.20;;;;;;4996634;28;20168;-81
2022/07/13 12:30:35;;;;;;;5.15;1.10;;;31.30;96.20;;;;;;4996801;28;20193;-82
2022/07/13 12:33:03;;;;;;;3.38;0.98;;;31.20;93.90;;;;;;5001878;28;20169;-81
2022/07/13 12:35:35;;;;;;;3.38;1.00;;;31.30;93.90;;;;;;5013782;28;20161;-84
2022/07/13 12:38:04;;;;;;;8.35;0.98;;;31.40;93.90;;;;;;5019744;28;20177;-85
2022/07/13 12:40:51;;;;;;;9.40;1.85;;;31.30;94.20;;;;;;5001944;28;20216;-84
2022/07/13 12:43:25;;;;;;;1.35;1.10;;;31.30;93.80;;;;;;4995322;28;20191;-84
2022/07/13 12:45:51;;;;;;;6.90;1.35;;;31.20;94.10;;;;;;4995138;28;20264;-85
2022/07/13 12:48:19;;;;;;;4.88;1.50;;;31.30;93.80;;;;;;5010864;28;20270;-85
2022/07/13 12:51:00;;;;;;;5.53;1.30;;;31.40;94.20;;;;;;5011015;28;20264;-85
2022/07/13 12:53:48;;;;;;;10.50;1.23;;;31.30;94.30;;;;;;5010661;28;20223;-86
2022/07/13 12:56:15;;;;;;;7.95;1.30;;;31.30;94.20;;;;;;4995670;28;20479;-86
2022/07/13 12:58:49;;;;;;;2.78;1.20;;;31.60;94.40;;;;;;4995112;28;20196;-83